createdAt,value
2022-11-27T00:02:22.332Z,102277.75
2022-11-27T00:04:48.909Z,102279.25
2022-11-27T00:07:15.573Z,102274.16
2022-11-27T00:09:44.264Z,102274.66
2022-11-27T00:12:11.163Z,102271.72
2022-11-27T00:14:41.315Z,102268.75
2022-11-27T00:17:08.159Z,102269.06
2022-11-27T00:19:34.843Z,102251.03
2022-11-27T00:22:01.760Z,102254.13
2022-11-27T00:24:28.534Z,102245.03
2022-11-27T00:26:55.191Z,102251.81
2022-11-27T00:29:22.089Z,102248.38
2022-11-27T00:31:48.767Z,102241.00
2022-11-27T00:34:15.448Z,102234.72
2022-11-27T00:36:46.585Z,102231.50
2022-11-27T00:39:15.107Z,102229.31
2022-11-27T00:41:41.708Z,102221.47
2022-11-27T00:44:08.368Z,102222.25
2022-11-27T00:46:35.535Z,102231.88
2022-11-27T00:49:06.132Z,102220.78
2022-11-27T00:51:33.157Z,102215.38
2022-11-27T00:53:59.897Z,102212.09
2022-11-27T00:56:29.572Z,102211.53
2022-11-27T00:58:56.697Z,102211.09
2022-11-27T01:01:31.038Z,102220.97
2022-11-27T01:03:58.704Z,102226.28
2022-11-27T01:06:28.768Z,102214.72
2022-11-27T01:08:55.559Z,102208.88
2022-11-27T01:11:28.204Z,102208.78
2022-11-27T01:14:00.740Z,102209.66
2022-11-27T01:16:28.894Z,102199.91
2022-11-27T01:18:57.823Z,102185.91
2022-11-27T01:21:25.988Z,102181.03
2022-11-27T01:23:53.772Z,102176.81
2022-11-27T01:26:23.635Z,102166.44
2022-11-27T01:28:56.049Z,102166.72
2022-11-27T01:31:25.761Z,102152.84
2022-11-27T01:33:54.837Z,102161.44
2022-11-27T01:36:21.978Z,102163.53
2022-11-27T01:38:48.663Z,102160.69
2022-11-27T01:41:18.922Z,102164.09
2022-11-27T01:43:51.640Z,102165.00
2022-11-27T01:46:36.644Z,102149.88
2022-11-27T01:49:12.387Z,102147.44
2022-11-27T01:51:47.373Z,102143.44
2022-11-27T01:54:19.303Z,102133.69
2022-11-27T01:56:49.096Z,102142.16
2022-11-27T01:59:17.583Z,102132.94
2022-11-27T02:01:44.298Z,102130.16
2022-11-27T02:04:11.094Z,102127.94
2022-11-27T02:06:37.709Z,102127.66
2022-11-27T02:09:04.395Z,102127.25
2022-11-27T02:12:11.424Z,102116.19
2022-11-27T02:14:50.398Z,102118.00
2022-11-27T02:17:34.092Z,102116.09
2022-11-27T02:20:38.918Z,102102.72
2022-11-27T02:23:14.600Z,102090.41
2022-11-27T02:26:15.308Z,102085.94
2022-11-27T02:29:04.295Z,102076.44
2022-11-27T02:31:40.760Z,102071.13
2022-11-27T02:34:10.555Z,102063.41
2022-11-27T02:36:37.958Z,102055.88
2022-11-27T02:39:12.356Z,102061.53
2022-11-27T02:41:47.775Z,102042.00
2022-11-27T02:44:15.206Z,102030.66
2022-11-27T02:46:42.153Z,102016.59
2022-11-27T02:49:12.087Z,102012.69
2022-11-27T02:51:43.563Z,102003.06
2022-11-27T02:54:14.065Z,102005.03
2022-11-27T02:56:41.895Z,101986.44
2022-11-27T02:59:11.969Z,101993.47
2022-11-27T03:01:43.486Z,101984.84
2022-11-27T03:04:14.882Z,101975.72
2022-11-27T03:06:45.442Z,101982.00
2022-11-27T03:09:25.552Z,101966.47
2022-11-27T03:11:52.764Z,101960.81
2022-11-27T03:14:24.421Z,101950.44
2022-11-27T03:17:00.010Z,101950.34
2022-11-27T03:19:31.472Z,101942.84
2022-11-27T03:22:02.216Z,101949.44
2022-11-27T03:24:30.478Z,101931.81
2022-11-27T03:27:00.391Z,101933.09
2022-11-27T03:29:55.924Z,101944.41
2022-11-27T03:32:26.316Z,101937.88
2022-11-27T03:34:53.259Z,101930.34
2022-11-27T03:37:20.212Z,101924.19
2022-11-27T03:39:47.344Z,101922.47
2022-11-27T03:42:29.505Z,101913.69
2022-11-27T03:45:11.342Z,101908.00
2022-11-27T03:48:04.340Z,101900.44
2022-11-27T03:50:55.842Z,101905.63
2022-11-27T03:53:38.246Z,101891.06
2022-11-27T03:56:24.717Z,101887.31
2022-11-27T03:59:10.773Z,101882.63
2022-11-27T04:01:37.622Z,101880.06
2022-11-27T04:04:04.477Z,101865.28
2022-11-27T04:06:31.144Z,101861.88
2022-11-27T04:08:57.877Z,101863.06
2022-11-27T04:11:24.444Z,101852.47
2022-11-27T04:13:52.252Z,101846.09
2022-11-27T04:16:26.561Z,101846.38
2022-11-27T04:18:53.273Z,101848.44
2022-11-27T04:21:20.704Z,101835.03
2022-11-27T04:23:50.196Z,101825.31
2022-11-27T04:26:17.060Z,101808.94
2022-11-27T04:28:43.667Z,101803.25
2022-11-27T04:31:10.356Z,101803.00
2022-11-27T04:33:37.004Z,101796.66
2022-11-27T04:36:03.827Z,101790.50
2022-11-27T04:38:30.539Z,101786.16
2022-11-27T04:41:00.278Z,101784.72
2022-11-27T04:43:26.971Z,101773.28
2022-11-27T04:45:53.585Z,101759.44
2022-11-27T04:48:20.146Z,101760.72
2022-11-27T04:50:46.770Z,101752.41
2022-11-27T04:53:13.479Z,101757.59
2022-11-27T04:55:40.215Z,101741.22
2022-11-27T04:58:06.911Z,101745.06
2022-11-27T05:00:33.774Z,101740.41
2022-11-27T05:03:00.492Z,101731.34
2022-11-27T05:05:32.202Z,101728.47
2022-11-27T05:08:06.226Z,101729.19
2022-11-27T05:10:32.813Z,101734.72
2022-11-27T05:13:09.256Z,101722.59
2022-11-27T05:15:35.886Z,101718.97
2022-11-27T05:18:06.323Z,101714.75
2022-11-27T05:20:45.169Z,101700.06
2022-11-27T05:23:11.823Z,101689.69
2022-11-27T05:25:39.109Z,101696.81
2022-11-27T05:28:05.839Z,101688.53
2022-11-27T05:30:40.014Z,101681.28
2022-11-27T05:33:06.772Z,101677.56
2022-11-27T05:35:33.596Z,101678.03
2022-11-27T05:38:00.280Z,101675.97
2022-11-27T05:40:29.644Z,101669.63
2022-11-27T05:42:56.232Z,101657.69
2022-11-27T05:45:22.807Z,101664.09
2022-11-27T05:47:49.342Z,101659.84
2022-11-27T05:50:15.979Z,101659.97
2022-11-27T05:52:44.814Z,101663.34
2022-11-27T05:55:11.449Z,101651.31
2022-11-27T05:57:38.582Z,101649.75
2022-11-27T06:00:06.816Z,101635.66
2022-11-27T06:02:33.471Z,101634.22
2022-11-27T06:05:00.100Z,101623.50
2022-11-27T06:07:26.791Z,101623.16
2022-11-27T06:09:53.520Z,101614.34
2022-11-27T06:12:20.180Z,101605.94
2022-11-27T06:14:46.759Z,101608.81
2022-11-27T06:17:16.424Z,101603.53
2022-11-27T06:19:43.221Z,101599.81
2022-11-27T06:22:10.094Z,101594.38
2022-11-27T06:24:38.330Z,101584.72
2022-11-27T06:27:05.133Z,101582.72
2022-11-27T06:29:31.749Z,101575.69
2022-11-27T06:31:58.453Z,101568.97
2022-11-27T06:34:25.042Z,101562.59
2022-11-27T06:36:51.677Z,101563.44
2022-11-27T06:39:18.263Z,101555.97
2022-11-27T06:41:44.901Z,101536.47
2022-11-27T06:44:11.530Z,101544.88
2022-11-27T06:46:38.129Z,101539.13
2022-11-27T06:49:04.812Z,101529.75
2022-11-27T06:51:32.384Z,101526.13
2022-11-27T06:54:00.316Z,101521.41
2022-11-27T06:56:28.453Z,101506.13
2022-11-27T06:59:00.043Z,101504.06
2022-11-27T07:01:30.577Z,101496.03
2022-11-27T07:03:57.996Z,101491.81
2022-11-27T07:06:26.109Z,101476.13
2022-11-27T07:08:54.081Z,101478.06
2022-11-27T07:11:23.402Z,101464.56
2022-11-27T07:13:51.851Z,101469.88
2022-11-27T07:16:18.948Z,101469.75
2022-11-27T07:18:49.453Z,101469.38
2022-11-27T07:21:16.852Z,101468.53
2022-11-27T07:23:46.601Z,101466.22
2022-11-27T07:26:18.737Z,101465.50
2022-11-27T07:28:45.704Z,101452.66
2022-11-27T07:31:17.803Z,101435.72
2022-11-27T07:33:44.625Z,101431.91
2022-11-27T07:36:14.766Z,101431.75
2022-11-27T07:38:41.960Z,101431.13
2022-11-27T07:41:09.033Z,101425.56
2022-11-27T07:43:36.632Z,101412.47
2022-11-27T07:46:05.256Z,101408.59
2022-11-27T07:48:32.357Z,101401.91
2022-11-27T07:50:58.983Z,101394.19
2022-11-27T07:53:25.667Z,101385.50
2022-11-27T07:55:52.315Z,101378.13
2022-11-27T07:58:18.931Z,101366.19
2022-11-27T08:00:45.555Z,101363.13
2022-11-27T08:03:12.256Z,101362.06
2022-11-27T08:05:38.865Z,101348.34
2022-11-27T08:08:05.543Z,101348.44
2022-11-27T08:10:35.822Z,101351.38
2022-11-27T08:13:02.513Z,101338.53
2022-11-27T08:15:29.205Z,101338.13
2022-11-27T08:17:55.777Z,101335.09
2022-11-27T08:20:22.641Z,101334.28
2022-11-27T08:22:49.270Z,101325.78
2022-11-27T08:25:16.364Z,101318.38
2022-11-27T08:27:43.349Z,101311.13
2022-11-27T08:30:10.744Z,101298.31
2022-11-27T08:32:41.849Z,101312.13
2022-11-27T08:35:10.232Z,101304.75
2022-11-27T08:37:37.447Z,101300.81
2022-11-27T08:40:06.147Z,101294.38
2022-11-27T08:42:32.967Z,101289.66
2022-11-27T08:44:59.730Z,101290.34
2022-11-27T08:47:26.425Z,101280.28
2022-11-27T08:49:53.009Z,101282.16
2022-11-27T08:52:20.634Z,101270.31
2022-11-27T08:54:47.357Z,101266.25
2022-11-27T08:57:15.117Z,101251.72
2022-11-27T08:59:42.027Z,101249.50
2022-11-27T09:02:12.306Z,101236.53
2022-11-27T09:04:39.245Z,101232.88
2022-11-27T09:07:06.067Z,101221.03
2022-11-27T09:09:32.870Z,101229.44
2022-11-27T09:11:59.612Z,101222.56
2022-11-27T09:14:26.312Z,101209.59
2022-11-27T09:16:53.900Z,101203.72
2022-11-27T09:19:21.631Z,101196.97
2022-11-27T09:21:49.966Z,101193.72
2022-11-27T09:24:16.556Z,101192.41
2022-11-27T09:26:44.786Z,101175.50
2022-11-27T09:29:11.421Z,101172.13
2022-11-27T09:31:38.106Z,101160.09
2022-11-27T09:34:05.597Z,101147.50
2022-11-27T09:36:32.276Z,101154.19
2022-11-27T09:38:59.670Z,101140.69
2022-11-27T09:41:47.644Z,101117.22
2022-11-27T09:44:35.478Z,101099.47
2022-11-27T09:47:12.877Z,101090.13
2022-11-27T09:49:44.618Z,101089.63
2022-11-27T09:52:49.520Z,101089.31
2022-11-27T09:55:37.315Z,101076.09
2022-11-27T09:58:23.851Z,101071.38
2022-11-27T10:00:50.425Z,101067.72
2022-11-27T10:03:21.826Z,101055.09
2022-11-27T10:05:57.625Z,101046.91
2022-11-27T10:08:46.890Z,101045.75
2022-11-27T10:11:16.649Z,101032.19
2022-11-27T10:13:55.561Z,101014.91
2022-11-27T10:16:44.126Z,101019.94
2022-11-27T10:19:21.815Z,101021.09
2022-11-27T10:21:57.227Z,101015.53
2022-11-27T10:24:48.264Z,101008.91
2022-11-27T10:27:25.922Z,101003.94
2022-11-27T10:29:56.038Z,100986.97
2022-11-27T10:32:54.737Z,100974.69
2022-11-27T10:35:21.035Z,100975.53
2022-11-27T10:38:20.078Z,100971.28
2022-11-27T10:40:52.019Z,100967.66
2022-11-27T10:43:21.310Z,100957.69
2022-11-27T10:45:57.790Z,100943.72
2022-11-27T10:48:25.048Z,100944.03
2022-11-27T10:50:51.721Z,100932.56
2022-11-27T10:53:36.445Z,100883.97
2022-11-27T10:56:38.711Z,100873.50
2022-11-27T10:59:14.081Z,100872.31
2022-11-27T11:01:53.248Z,100876.31
2022-11-27T11:04:54.511Z,100875.50
2022-11-27T11:07:26.052Z,100870.16
2022-11-27T11:09:54.235Z,100864.47
2022-11-27T11:12:22.740Z,100861.63
2022-11-27T11:14:55.553Z,100862.81
2022-11-27T11:17:27.425Z,100855.31
2022-11-27T11:19:54.334Z,100852.47
2022-11-27T11:22:21.455Z,100838.16
2022-11-27T11:24:49.796Z,100836.16
2022-11-27T11:27:21.405Z,100843.66
2022-11-27T11:29:54.609Z,100824.66
2022-11-27T11:32:21.185Z,100828.50
2022-11-27T11:35:00.648Z,100830.31
2022-11-27T11:37:30.958Z,100817.63
2022-11-27T11:40:01.607Z,100821.63
2022-11-27T11:42:31.233Z,100826.66
2022-11-27T11:45:02.815Z,100826.97
2022-11-27T11:47:29.544Z,100825.13
2022-11-27T11:49:56.641Z,100811.94
2022-11-27T11:52:38.481Z,100809.44
2022-11-27T11:55:12.125Z,100819.44
2022-11-27T11:58:11.140Z,100808.09
2022-11-27T12:01:11.705Z,100805.63
2022-11-27T12:04:05.972Z,100799.16
2022-11-27T12:06:46.136Z,100796.28
2022-11-27T12:09:22.056Z,100791.78
2022-11-27T12:11:54.703Z,100783.59
2022-11-27T12:14:43.346Z,100781.72
2022-11-27T12:17:32.783Z,100779.22
2022-11-27T12:20:13.138Z,100774.94
2022-11-27T12:22:52.648Z,100773.94
2022-11-27T12:25:22.474Z,100769.72
2022-11-27T12:27:56.824Z,100756.09
2022-11-27T12:30:26.526Z,100762.25
2022-11-27T12:33:05.638Z,100750.44
2022-11-27T12:36:00.123Z,100754.56
2022-11-27T12:39:02.073Z,100748.94
2022-11-27T12:41:47.029Z,100741.69
2022-11-27T12:44:39.989Z,100734.06
2022-11-27T12:47:26.879Z,100720.66
2022-11-27T12:50:00.675Z,100732.34
2022-11-27T12:52:34.907Z,100736.34
2022-11-27T12:55:06.608Z,100724.34
2022-11-27T12:57:51.840Z,100727.66
2022-11-27T13:00:20.805Z,100724.75
2022-11-27T13:02:57.727Z,100717.84
2022-11-27T13:05:27.094Z,100719.16
2022-11-27T13:08:02.705Z,100712.09
2022-11-27T13:10:42.608Z,100720.59
2022-11-27T13:13:22.416Z,100700.44
2022-11-27T13:15:56.646Z,100704.47
2022-11-27T13:18:33.006Z,100708.50
2022-11-27T13:21:02.648Z,100699.63
2022-11-27T13:23:33.084Z,100691.97
2022-11-27T13:26:02.342Z,100692.78
2022-11-27T13:28:40.158Z,100685.97
2022-11-27T13:31:07.588Z,100680.16
2022-11-27T13:33:43.206Z,100679.34
2022-11-27T13:36:22.224Z,100675.78
2022-11-27T13:39:07.180Z,100669.78
2022-11-27T13:41:40.254Z,100669.13
2022-11-27T13:44:24.949Z,100672.16
2022-11-27T13:46:54.940Z,100670.31
2022-11-27T13:49:43.340Z,100671.78
2022-11-27T13:52:12.853Z,100660.25
2022-11-27T13:54:40.679Z,100665.00
2022-11-27T13:57:15.828Z,100655.34
2022-11-27T13:59:58.178Z,100644.81
2022-11-27T14:02:25.945Z,100651.81
2022-11-27T14:04:56.471Z,100635.66
2022-11-27T14:07:24.212Z,100636.09
2022-11-27T14:09:56.218Z,100632.13
2022-11-27T14:12:28.399Z,100617.19
2022-11-27T14:15:08.782Z,100626.00
2022-11-27T14:17:40.085Z,100620.56
2022-11-27T14:20:21.468Z,100623.28
2022-11-27T14:25:37.782Z,100613.28
2022-11-27T14:28:17.388Z,100603.91
2022-11-27T14:30:47.645Z,100608.97
2022-11-27T14:33:28.813Z,100596.78
2022-11-27T14:36:00.520Z,100590.28
2022-11-27T14:38:28.441Z,100584.47
2022-11-27T14:41:08.475Z,100587.53
2022-11-27T14:43:35.249Z,100573.81
2022-11-27T14:46:02.961Z,100589.38
2022-11-27T14:49:05.157Z,100575.22
2022-11-27T14:51:35.168Z,100575.41
2022-11-27T14:54:04.466Z,100567.91
2022-11-27T14:56:37.640Z,100536.22
2022-11-27T14:59:04.351Z,100544.81
2022-11-27T15:01:33.964Z,100564.38
2022-11-27T15:04:06.732Z,100545.28
2022-11-27T15:06:37.815Z,100560.78
2022-11-27T15:09:30.305Z,100558.19
2022-11-27T15:11:57.028Z,100554.50
2022-11-27T15:14:25.933Z,100555.31
2022-11-27T15:16:53.588Z,100550.72
2022-11-27T15:19:36.000Z,100547.97
2022-11-27T15:22:03.189Z,100546.66
2022-11-27T15:24:37.733Z,100548.66
2022-11-27T15:27:22.780Z,100543.63
2022-11-27T15:29:49.407Z,100535.81
2022-11-27T15:32:27.917Z,100530.13
2022-11-27T15:34:54.857Z,100526.78
2022-11-27T15:37:35.054Z,100527.16
2022-11-27T15:40:02.044Z,100520.06
2022-11-27T15:42:28.773Z,100517.16
2022-11-27T15:44:57.312Z,100509.69
2022-11-27T15:47:33.369Z,100519.22
2022-11-27T15:50:00.421Z,100516.09
2022-11-27T15:52:27.492Z,100509.91
2022-11-27T15:54:55.418Z,100507.19
2022-11-27T15:57:22.304Z,100504.06
2022-11-27T15:59:48.915Z,100514.06
2022-11-27T16:02:18.020Z,100513.94
2022-11-27T16:04:45.146Z,100514.22
2022-11-27T16:07:11.852Z,100511.47
2022-11-27T16:09:39.760Z,100506.69
2022-11-27T16:12:06.767Z,100509.56
2022-11-27T16:14:34.905Z,100505.03
2022-11-27T16:17:01.813Z,100495.59
2022-11-27T16:19:28.725Z,100482.25
2022-11-27T16:21:55.479Z,100472.91
2022-11-27T16:24:22.321Z,100475.91
2022-11-27T16:26:48.886Z,100476.47
2022-11-27T16:29:15.562Z,100472.91
2022-11-27T16:31:42.400Z,100466.41
2022-11-27T16:34:09.372Z,100471.91
2022-11-27T16:36:41.384Z,100465.41
2022-11-27T16:39:10.051Z,100469.22
2022-11-27T16:41:37.220Z,100457.75
2022-11-27T16:44:10.581Z,100454.91
2022-11-27T16:46:38.930Z,100450.72
2022-11-27T16:49:06.765Z,100449.41
2022-11-27T16:51:34.586Z,100454.91
2022-11-27T16:54:03.814Z,100451.53
2022-11-27T16:56:32.361Z,100449.41
2022-11-27T16:59:02.995Z,100453.25
2022-11-27T17:01:34.310Z,100448.63
2022-11-27T17:04:03.469Z,100441.94
2022-11-27T17:06:31.879Z,100440.81
2022-11-27T17:09:00.168Z,100437.25
2022-11-27T17:11:29.360Z,100440.94
2022-11-27T17:13:59.640Z,100436.31
2022-11-27T17:16:26.458Z,100443.13
2022-11-27T17:18:53.538Z,100437.63
2022-11-27T17:21:28.744Z,100436.25
2022-11-27T17:23:56.648Z,100432.94
2022-11-27T17:26:24.894Z,100425.66
2022-11-27T17:28:55.568Z,100437.09
2022-11-27T17:31:25.337Z,100430.09
2022-11-27T17:33:54.234Z,100420.25
2022-11-27T17:36:21.013Z,100415.94
2022-11-27T17:38:47.709Z,100413.28
2022-11-27T17:41:14.775Z,100409.50
2022-11-27T17:43:42.326Z,100400.66
2022-11-27T17:46:17.058Z,100404.19
2022-11-27T17:48:44.308Z,100406.53
2022-11-27T17:51:11.302Z,100391.00
2022-11-27T17:53:37.945Z,100390.78
2022-11-27T17:56:10.449Z,100386.53
2022-11-27T17:58:37.499Z,100392.03
2022-11-27T18:01:05.405Z,100393.16
2022-11-27T18:03:35.899Z,100388.91
2022-11-27T18:06:04.956Z,100385.69
2022-11-27T18:08:32.177Z,100404.69
2022-11-27T18:11:05.072Z,100395.63
2022-11-27T18:13:32.573Z,100401.69
2022-11-27T18:16:20.712Z,100395.53
2022-11-27T18:18:49.478Z,100398.34
2022-11-27T18:21:18.701Z,100389.13
2022-11-27T18:24:20.663Z,100385.03
2022-11-27T18:27:00.599Z,100375.16
2022-11-27T18:29:20.767Z,100384.03
2022-11-27T18:31:47.749Z,100381.50
2022-11-27T18:34:14.491Z,100372.38
2022-11-27T18:36:41.077Z,100378.53
2022-11-27T18:39:07.760Z,100369.69
2022-11-27T18:41:34.804Z,100375.75
2022-11-27T18:44:01.761Z,100371.06
2022-11-27T18:46:28.520Z,100361.25
2022-11-27T18:48:55.216Z,100355.44
2022-11-27T18:51:24.265Z,100361.41
2022-11-27T18:53:51.951Z,100356.44
2022-11-27T18:56:21.987Z,100354.28
2022-11-27T18:58:49.171Z,100347.88
2022-11-27T19:01:19.131Z,100352.56
2022-11-27T19:03:46.382Z,100349.19
2022-11-27T19:06:14.447Z,100347.38
2022-11-27T19:08:41.762Z,100350.63
2022-11-27T19:11:11.728Z,100346.22
2022-11-27T19:13:39.141Z,100340.13
2022-11-27T19:16:11.564Z,100346.38
2022-11-27T19:18:38.325Z,100346.94
2022-11-27T19:21:10.104Z,100350.41
2022-11-27T19:23:39.353Z,100327.56
2022-11-27T19:26:18.300Z,100325.56
2022-11-27T19:28:48.376Z,100320.03
2022-11-27T19:31:16.394Z,100320.94
2022-11-27T19:33:43.588Z,100322.69
2022-11-27T19:36:13.793Z,100313.84
2022-11-27T19:38:42.007Z,100320.06
2022-11-27T19:41:16.859Z,100317.50
2022-11-27T19:43:43.766Z,100322.19
2022-11-27T19:46:37.339Z,100315.50
2022-11-27T19:49:07.266Z,100308.06
2022-11-27T19:51:36.435Z,100315.22
2022-11-27T19:54:07.060Z,100307.94
2022-11-27T19:56:39.938Z,100309.44
2022-11-27T19:59:07.142Z,100315.03
2022-11-27T20:01:34.099Z,100309.94
2022-11-27T20:04:02.066Z,100304.09
2022-11-27T20:06:28.784Z,100292.72
2022-11-27T20:09:01.076Z,100294.56
2022-11-27T20:11:34.305Z,100286.28
2022-11-27T20:14:01.561Z,100289.59
2022-11-27T20:16:28.270Z,100287.47
2022-11-27T20:18:55.404Z,100290.84
2022-11-27T20:21:24.825Z,100289.34
2022-11-27T20:23:52.626Z,100279.50
2022-11-27T20:26:22.102Z,100278.72
2022-11-27T20:28:49.396Z,100275.72
2022-11-27T20:31:22.278Z,100274.44
2022-11-27T20:33:49.032Z,100268.41
2022-11-27T20:36:17.674Z,100263.56
2022-11-27T20:38:45.273Z,100257.34
2022-11-27T20:41:14.640Z,100259.22
2022-11-27T20:43:41.556Z,100254.59
2022-11-27T20:46:08.244Z,100260.06
2022-11-27T20:48:35.273Z,100249.25
2022-11-27T20:51:10.734Z,100256.41
2022-11-27T20:53:37.998Z,100264.44
2022-11-27T20:56:06.145Z,100254.94
2022-11-27T20:58:34.879Z,100257.63
2022-11-27T21:01:20.117Z,100247.88
2022-11-27T21:03:49.352Z,100241.72
2022-11-27T21:06:17.484Z,100249.16
2022-11-27T21:08:44.389Z,100247.38
2022-11-27T21:11:16.002Z,100240.16
2022-11-27T21:13:43.857Z,100243.50
2022-11-27T21:16:12.459Z,100235.28
2022-11-27T21:18:39.841Z,100229.47
2022-11-27T21:21:08.461Z,100234.44
2022-11-27T21:23:35.454Z,100220.84
2022-11-27T21:26:02.020Z,100219.38
2022-11-27T21:28:30.752Z,100225.38
2022-11-27T21:31:05.778Z,100217.03
2022-11-27T21:33:32.574Z,100212.44
2022-11-27T21:35:59.998Z,100211.75
2022-11-27T21:38:27.120Z,100207.31
2022-11-27T21:40:54.163Z,100205.50
2022-11-27T21:43:20.769Z,100203.41
2022-11-27T21:45:48.313Z,100201.25
2022-11-27T21:48:14.919Z,100192.09
2022-11-27T21:50:41.595Z,100189.63
2022-11-27T21:53:08.224Z,100186.13
2022-11-27T21:55:39.349Z,100183.13
2022-11-27T21:58:06.550Z,100181.19
2022-11-27T22:00:33.231Z,100181.19
2022-11-27T22:02:59.813Z,100176.22
2022-11-27T22:05:26.420Z,100156.28
2022-11-27T22:07:53.110Z,100155.28
2022-11-27T22:10:19.776Z,100132.00
2022-11-27T22:12:46.383Z,100102.81
2022-11-27T22:15:12.940Z,100106.88
2022-11-27T22:17:39.605Z,100101.97
2022-11-27T22:20:06.895Z,100095.16
2022-11-27T22:22:33.999Z,100092.41
2022-11-27T22:25:04.180Z,100083.72
2022-11-27T22:27:31.043Z,100076.03
2022-11-27T22:29:57.636Z,100072.72
2022-11-27T22:32:24.307Z,100069.50
2022-11-27T22:34:51.550Z,100064.81
2022-11-27T22:37:18.194Z,100069.84
2022-11-27T22:39:44.787Z,100072.31
2022-11-27T22:42:12.300Z,100067.47
2022-11-27T22:44:39.341Z,100076.56
2022-11-27T22:47:05.995Z,100083.53
2022-11-27T22:49:32.682Z,100076.56
2022-11-27T22:51:59.377Z,100078.88
2022-11-27T22:54:26.031Z,100081.34
2022-11-27T22:56:54.266Z,100075.03
2022-11-27T22:59:36.088Z,100074.88
2022-11-27T23:02:06.324Z,100074.59
2022-11-27T23:04:34.421Z,100087.69
2022-11-27T23:07:01.751Z,100080.06
2022-11-27T23:09:29.247Z,100078.88
2022-11-27T23:11:56.972Z,100085.84
2022-11-27T23:14:24.715Z,100076.22
2022-11-27T23:16:51.391Z,100064.03
2022-11-27T23:19:18.504Z,100075.56
2022-11-27T23:21:45.219Z,100072.72
2022-11-27T23:24:13.679Z,100070.91
2022-11-27T23:26:40.328Z,100056.94
2022-11-27T23:29:07.023Z,100053.59
2022-11-27T23:31:35.276Z,100022.69
2022-11-27T23:34:05.266Z,100041.94
2022-11-27T23:36:32.281Z,100050.81
2022-11-27T23:39:04.457Z,100044.41
2022-11-27T23:41:31.413Z,100042.59
2022-11-27T23:43:58.095Z,100033.97
2022-11-27T23:46:27.640Z,100023.78
2022-11-27T23:48:55.658Z,100014.72
2022-11-27T23:51:26.024Z,100019.72
2022-11-27T23:53:53.306Z,100012.59
2022-11-27T23:56:25.184Z,100013.38
2022-11-27T23:58:52.127Z,100011.41
